sensor_id;sensor_type;location;lat;lon;timestamp;temperature;humidity
6164;DHT22;3114;48.362;10.994;2023-04-01T00:01:42;8.30;99.90
6164;DHT22;3114;48.362;10.994;2023-04-01T00:04:08;8.30;99.90
6164;DHT22;3114;48.362;10.994;2023-04-01T00:06:35;8.40;99.90
6164;DHT22;3114;48.362;10.994;2023-04-01T00:09:02;8.30;99.90
6164;DHT22;3114;48.362;10.994;2023-04-01T00:11:30;8.30;99.90
6164;DHT22;3114;48.362;10.994;2023-04-01T00:13:56;8.20;99.90
6164;DHT22;3114;48.362;10.994;2023-04-01T00:16:25;8.30;99.90
6164;DHT22;3114;48.362;10.994;2023-04-01T00:18:51;8.30;99.90
6164;DHT22;3114;48.362;10.994;2023-04-01T00:21:20;8.30;99.90
6164;DHT22;3114;48.362;10.994;2023-04-01T00:23:47;8.30;99.90
6164;DHT22;3114;48.362;10.994;2023-04-01T00:26:14;8.30;99.90
6164;DHT22;3114;48.362;10.994;2023-04-01T00:28:44;8.40;99.90
6164;DHT22;3114;48.362;10.994;2023-04-01T00:31:11;8.30;99.90
6164;DHT22;3114;48.362;10.994;2023-04-01T00:33:40;8.20;99.90
6164;DHT22;3114;48.362;10.994;2023-04-01T00:36:08;8.30;99.90
6164;DHT22;3114;48.362;10.994;2023-04-01T00:38:36;8.20;99.90
6164;DHT22;3114;48.362;10.994;2023-04-01T00:41:03;8.20;99.90
6164;DHT22;3114;48.362;10.994;2023-04-01T00:43:31;8.30;99.90
6164;DHT22;3114;48.362;10.994;2023-04-01T00:45:58;8.30;99.90
6164;DHT22;3114;48.362;10.994;2023-04-01T00:48:29;8.30;99.90
6164;DHT22;3114;48.362;10.994;2023-04-01T00:51:01;8.30;99.90
6164;DHT22;3114;48.362;10.994;2023-04-01T00:53:30;8.20;99.90
6164;DHT22;3114;48.362;10.994;2023-04-01T00:56:01;8.30;99.90
6164;DHT22;3114;48.362;10.994;2023-04-01T00:58:32;8.30;99.90
6164;DHT22;3114;48.362;10.994;2023-04-01T01:01:01;8.20;99.90
6164;DHT22;3114;48.362;10.994;2023-04-01T01:03:28;8.20;99.90
6164;DHT22;3114;48.362;10.994;2023-04-01T01:06:09;8.20;99.90
6164;DHT22;3114;48.362;10.994;2023-04-01T01:08:52;8.20;99.90
6164;DHT22;3114;48.362;10.994;2023-04-01T01:11:24;8.20;99.90
6164;DHT22;3114;48.362;10.994;2023-04-01T01:13:59;8.20;99.90
6164;DHT22;3114;48.362;10.994;2023-04-01T01:16:30;8.30;99.90
6164;DHT22;3114;48.362;10.994;2023-04-01T01:19:08;8.20;99.90
6164;DHT22;3114;48.362;10.994;2023-04-01T01:22:06;8.20;99.90
6164;DHT22;3114;48.362;10.994;2023-04-01T01:24:50;8.30;99.90
6164;DHT22;3114;48.362;10.994;2023-04-01T01:27:20;8.20;99.90
6164;DHT22;3114;48.362;10.994;2023-04-01T01:30:12;8.30;99.90
6164;DHT22;3114;48.362;10.994;2023-04-01T01:35:46;8.20;99.90
6164;DHT22;3114;48.362;10.994;2023-04-01T01:38:16;8.20;99.90
6164;DHT22;3114;48.362;10.994;2023-04-01T01:40:45;8.20;99.90
6164;DHT22;3114;48.362;10.994;2023-04-01T01:43:17;8.10;99.90
6164;DHT22;3114;48.362;10.994;2023-04-01T01:45:49;8.10;99.90
6164;DHT22;3114;48.362;10.994;2023-04-01T01:48:17;8.10;99.90
6164;DHT22;3114;48.362;10.994;2023-04-01T01:50:48;8.20;99.90
6164;DHT22;3114;48.362;10.994;2023-04-01T01:53:15;8.20;99.90
6164;DHT22;3114;48.362;10.994;2023-04-01T01:55:43;8.10;99.90
6164;DHT22;3114;48.362;10.994;2023-04-01T01:58:13;8.10;99.90
6164;DHT22;3114;48.362;10.994;2023-04-01T02:00:45;8.10;99.90
6164;DHT22;3114;48.362;10.994;2023-04-01T02:03:15;8.10;99.90
6164;DHT22;3114;48.362;10.994;2023-04-01T02:05:42;8.10;99.90
6164;DHT22;3114;48.362;10.994;2023-04-01T02:08:13;8.10;99.90
6164;DHT22;3114;48.362;10.994;2023-04-01T02:10:45;8.00;99.90
6164;DHT22;3114;48.362;10.994;2023-04-01T02:13:17;8.00;99.90
6164;DHT22;3114;48.362;10.994;2023-04-01T02:15:47;8.00;99.90
6164;DHT22;3114;48.362;10.994;2023-04-01T02:18:15;8.00;99.90
6164;DHT22;3114;48.362;10.994;2023-04-01T02:20:45;8.00;99.90
6164;DHT22;3114;48.362;10.994;2023-04-01T02:23:13;8.00;99.90
6164;DHT22;3114;48.362;10.994;2023-04-01T02:25:41;7.90;99.90
6164;DHT22;3114;48.362;10.994;2023-04-01T02:28:10;7.90;99.90
6164;DHT22;3114;48.362;10.994;2023-04-01T02:30:39;7.80;99.90
6164;DHT22;3114;48.362;10.994;2023-04-01T02:33:07;7.80;99.90
6164;DHT22;3114;48.362;10.994;2023-04-01T02:35:35;7.80;99.90
6164;DHT22;3114;48.362;10.994;2023-04-01T02:38:03;7.80;99.90
6164;DHT22;3114;48.362;10.994;2023-04-01T02:40:41;7.80;99.90
6164;DHT22;3114;48.362;10.994;2023-04-01T02:43:08;7.80;99.90
6164;DHT22;3114;48.362;10.994;2023-04-01T02:45:35;7.70;99.90
6164;DHT22;3114;48.362;10.994;2023-04-01T02:48:03;7.70;99.90
6164;DHT22;3114;48.362;10.994;2023-04-01T02:50:30;7.70;99.90
6164;DHT22;3114;48.362;10.994;2023-04-01T02:52:57;7.70;99.90
6164;DHT22;3114;48.362;10.994;2023-04-01T02:55:24;7.70;99.90
6164;DHT22;3114;48.362;10.994;2023-04-01T02:57:52;7.70;99.90
6164;DHT22;3114;48.362;10.994;2023-04-01T03:00:19;7.70;99.90
6164;DHT22;3114;48.362;10.994;2023-04-01T03:02:46;7.60;99.90
6164;DHT22;3114;48.362;10.994;2023-04-01T03:05:13;7.50;99.90
6164;DHT22;3114;48.362;10.994;2023-04-01T03:07:40;7.50;99.90
6164;DHT22;3114;48.362;10.994;2023-04-01T03:10:08;7.60;99.90
6164;DHT22;3114;48.362;10.994;2023-04-01T03:12:35;7.50;99.90
6164;DHT22;3114;48.362;10.994;2023-04-01T03:15:04;7.50;99.90
6164;DHT22;3114;48.362;10.994;2023-04-01T03:17:31;7.50;99.90
6164;DHT22;3114;48.362;10.994;2023-04-01T03:19:58;7.50;99.90
6164;DHT22;3114;48.362;10.994;2023-04-01T03:22:25;7.50;99.90
6164;DHT22;3114;48.362;10.994;2023-04-01T03:24:52;7.50;99.90
6164;DHT22;3114;48.362;10.994;2023-04-01T03:27:19;7.50;99.90
6164;DHT22;3114;48.362;10.994;2023-04-01T03:29:46;7.50;99.90
6164;DHT22;3114;48.362;10.994;2023-04-01T03:32:14;7.50;99.90
6164;DHT22;3114;48.362;10.994;2023-04-01T03:34:41;7.50;99.90
6164;DHT22;3114;48.362;10.994;2023-04-01T03:37:08;7.50;99.90
6164;DHT22;3114;48.362;10.994;2023-04-01T03:39:35;7.50;99.90
6164;DHT22;3114;48.362;10.994;2023-04-01T03:42:01;7.50;99.90
6164;DHT22;3114;48.362;10.994;2023-04-01T03:44:31;7.50;99.90
6164;DHT22;3114;48.362;10.994;2023-04-01T03:46:58;7.50;99.90
6164;DHT22;3114;48.362;10.994;2023-04-01T03:49:26;7.50;99.90
6164;DHT22;3114;48.362;10.994;2023-04-01T03:51:53;7.50;99.90
6164;DHT22;3114;48.362;10.994;2023-04-01T03:54:20;7.40;99.90
6164;DHT22;3114;48.362;10.994;2023-04-01T03:56:47;7.40;99.90
6164;DHT22;3114;48.362;10.994;2023-04-01T03:59:14;7.40;99.90
6164;DHT22;3114;48.362;10.994;2023-04-01T04:01:41;7.40;99.90
6164;DHT22;3114;48.362;10.994;2023-04-01T04:04:10;7.50;99.90
6164;DHT22;3114;48.362;10.994;2023-04-01T04:06:38;7.50;99.90
6164;DHT22;3114;48.362;10.994;2023-04-01T04:09:05;7.50;99.90
6164;DHT22;3114;48.362;10.994;2023-04-01T04:11:32;7.50;99.90
6164;DHT22;3114;48.362;10.994;2023-04-01T04:13:59;7.40;99.90
6164;DHT22;3114;48.362;10.994;2023-04-01T04:16:26;7.40;99.90
6164;DHT22;3114;48.362;10.994;2023-04-01T04:18:52;7.50;99.90
6164;DHT22;3114;48.362;10.994;2023-04-01T04:21:19;7.50;99.90
6164;DHT22;3114;48.362;10.994;2023-04-01T04:23:47;7.50;99.90
6164;DHT22;3114;48.362;10.994;2023-04-01T04:26:15;7.50;99.90
6164;DHT22;3114;48.362;10.994;2023-04-01T04:28:42;7.50;99.90
6164;DHT22;3114;48.362;10.994;2023-04-01T04:31:09;7.60;99.90
6164;DHT22;3114;48.362;10.994;2023-04-01T04:33:36;7.40;99.90
6164;DHT22;3114;48.362;10.994;2023-04-01T04:36:04;7.40;99.90
6164;DHT22;3114;48.362;10.994;2023-04-01T04:38:31;7.30;99.90
6164;DHT22;3114;48.362;10.994;2023-04-01T04:40:59;7.30;99.90
6164;DHT22;3114;48.362;10.994;2023-04-01T04:43:26;7.40;99.90
6164;DHT22;3114;48.362;10.994;2023-04-01T04:45:53;7.40;99.90
6164;DHT22;3114;48.362;10.994;2023-04-01T04:48:20;7.40;99.90
6164;DHT22;3114;48.362;10.994;2023-04-01T04:50:48;7.40;99.90
6164;DHT22;3114;48.362;10.994;2023-04-01T04:53:16;7.40;99.90
6164;DHT22;3114;48.362;10.994;2023-04-01T04:55:44;7.50;99.90
6164;DHT22;3114;48.362;10.994;2023-04-01T04:58:13;7.50;99.90
6164;DHT22;3114;48.362;10.994;2023-04-01T05:00:40;7.50;99.90
6164;DHT22;3114;48.362;10.994;2023-04-01T05:03:07;7.40;99.90
6164;DHT22;3114;48.362;10.994;2023-04-01T05:05:34;7.60;99.90
6164;DHT22;3114;48.362;10.994;2023-04-01T05:08:01;7.60;99.90
6164;DHT22;3114;48.362;10.994;2023-04-01T05:10:28;7.50;99.90
6164;DHT22;3114;48.362;10.994;2023-04-01T05:12:56;7.50;99.90
6164;DHT22;3114;48.362;10.994;2023-04-01T05:15:24;7.60;99.90
6164;DHT22;3114;48.362;10.994;2023-04-01T05:17:51;7.60;99.90
6164;DHT22;3114;48.362;10.994;2023-04-01T05:20:18;7.60;99.90
6164;DHT22;3114;48.362;10.994;2023-04-01T05:22:45;7.80;99.90
6164;DHT22;3114;48.362;10.994;2023-04-01T05:25:11;7.80;99.90
6164;DHT22;3114;48.362;10.994;2023-04-01T05:27:38;7.80;99.90
6164;DHT22;3114;48.362;10.994;2023-04-01T05:30:06;7.80;99.90
6164;DHT22;3114;48.362;10.994;2023-04-01T05:32:35;7.80;99.90
6164;DHT22;3114;48.362;10.994;2023-04-01T05:35:01;7.80;99.90
6164;DHT22;3114;48.362;10.994;2023-04-01T05:37:32;8.10;99.90
6164;DHT22;3114;48.362;10.994;2023-04-01T05:40:17;8.20;99.90
6164;DHT22;3114;48.362;10.994;2023-04-01T05:42:58;8.40;99.90
6164;DHT22;3114;48.362;10.994;2023-04-01T05:45:25;9.10;99.90
6164;DHT22;3114;48.362;10.994;2023-04-01T05:47:54;8.30;99.90
6164;DHT22;3114;48.362;10.994;2023-04-01T05:50:21;8.30;99.90
6164;DHT22;3114;48.362;10.994;2023-04-01T05:52:49;8.40;99.90
6164;DHT22;3114;48.362;10.994;2023-04-01T05:55:18;8.40;99.90
6164;DHT22;3114;48.362;10.994;2023-04-01T05:57:48;8.40;99.90
6164;DHT22;3114;48.362;10.994;2023-04-01T06:00:17;8.40;99.90
6164;DHT22;3114;48.362;10.994;2023-04-01T06:02:45;8.60;99.90
6164;DHT22;3114;48.362;10.994;2023-04-01T06:05:17;8.30;99.90
6164;DHT22;3114;48.362;10.994;2023-04-01T06:07:45;8.40;99.90
6164;DHT22;3114;48.362;10.994;2023-04-01T06:10:14;8.20;99.90
6164;DHT22;3114;48.362;10.994;2023-04-01T06:12:59;8.10;99.90
6164;DHT22;3114;48.362;10.994;2023-04-01T06:15:36;8.10;99.90
6164;DHT22;3114;48.362;10.994;2023-04-01T06:18:36;8.00;99.90
6164;DHT22;3114;48.362;10.994;2023-04-01T06:21:23;8.00;99.90
6164;DHT22;3114;48.362;10.994;2023-04-01T06:24:04;8.10;99.90
6164;DHT22;3114;48.362;10.994;2023-04-01T06:26:44;8.20;99.90
6164;DHT22;3114;48.362;10.994;2023-04-01T06:32:54;8.10;99.90
6164;DHT22;3114;48.362;10.994;2023-04-01T06:35:35;8.10;99.90
6164;DHT22;3114;48.362;10.994;2023-04-01T06:38:39;8.20;99.90
6164;DHT22;3114;48.362;10.994;2023-04-01T06:44:07;8.30;99.90
6164;DHT22;3114;48.362;10.994;2023-04-01T06:46:43;8.40;99.90
6164;DHT22;3114;48.362;10.994;2023-04-01T06:49:35;8.50;99.90
6164;DHT22;3114;48.362;10.994;2023-04-01T06:52:15;8.50;99.90
6164;DHT22;3114;48.362;10.994;2023-04-01T06:54:49;8.40;99.90
6164;DHT22;3114;48.362;10.994;2023-04-01T06:57:23;8.50;99.90
6164;DHT22;3114;48.362;10.994;2023-04-01T06:59:52;8.50;99.90
6164;DHT22;3114;48.362;10.994;2023-04-01T07:02:27;8.60;99.90
6164;DHT22;3114;48.362;10.994;2023-04-01T07:04:58;8.60;99.90
6164;DHT22;3114;48.362;10.994;2023-04-01T07:07:30;8.70;99.90
6164;DHT22;3114;48.362;10.994;2023-04-01T07:10:05;8.80;99.90
6164;DHT22;3114;48.362;10.994;2023-04-01T07:12:42;8.80;99.90
6164;DHT22;3114;48.362;10.994;2023-04-01T07:15:18;8.80;99.90
6164;DHT22;3114;48.362;10.994;2023-04-01T07:17:48;8.80;99.90
6164;DHT22;3114;48.362;10.994;2023-04-01T07:20:22;8.80;99.90
6164;DHT22;3114;48.362;10.994;2023-04-01T07:22:54;8.70;99.90
6164;DHT22;3114;48.362;10.994;2023-04-01T07:25:27;8.80;99.90
6164;DHT22;3114;48.362;10.994;2023-04-01T07:27:59;8.80;99.90
6164;DHT22;3114;48.362;10.994;2023-04-01T07:30:30;8.80;99.90
6164;DHT22;3114;48.362;10.994;2023-04-01T07:33:04;8.80;99.90
6164;DHT22;3114;48.362;10.994;2023-04-01T07:35:39;8.70;99.90
6164;DHT22;3114;48.362;10.994;2023-04-01T07:38:18;8.80;99.90
6164;DHT22;3114;48.362;10.994;2023-04-01T07:40:59;8.70;99.90
6164;DHT22;3114;48.362;10.994;2023-04-01T07:43:48;8.90;99.90
6164;DHT22;3114;48.362;10.994;2023-04-01T07:46:31;8.90;99.90
6164;DHT22;3114;48.362;10.994;2023-04-01T07:49:04;8.90;99.90
6164;DHT22;3114;48.362;10.994;2023-04-01T07:51:40;9.10;99.90
6164;DHT22;3114;48.362;10.994;2023-04-01T07:54:13;9.10;99.90
6164;DHT22;3114;48.362;10.994;2023-04-01T07:56:49;9.20;99.90
6164;DHT22;3114;48.362;10.994;2023-04-01T07:59:24;9.10;99.90
6164;DHT22;3114;48.362;10.994;2023-04-01T08:02:02;9.10;99.90
6164;DHT22;3114;48.362;10.994;2023-04-01T08:04:41;9.10;99.90
6164;DHT22;3114;48.362;10.994;2023-04-01T08:07:18;9.10;99.90
6164;DHT22;3114;48.362;10.994;2023-04-01T08:09:52;9.10;99.90
6164;DHT22;3114;48.362;10.994;2023-04-01T08:12:31;9.00;99.90
6164;DHT22;3114;48.362;10.994;2023-04-01T08:15:10;9.00;99.90
6164;DHT22;3114;48.362;10.994;2023-04-01T08:17:47;9.10;99.90
6164;DHT22;3114;48.362;10.994;2023-04-01T08:20:26;9.20;99.90
6164;DHT22;3114;48.362;10.994;2023-04-01T08:22:58;9.20;99.90
6164;DHT22;3114;48.362;10.994;2023-04-01T08:25:28;9.30;99.90
6164;DHT22;3114;48.362;10.994;2023-04-01T08:28:03;9.30;99.90
6164;DHT22;3114;48.362;10.994;2023-04-01T08:30:40;9.40;99.90
6164;DHT22;3114;48.362;10.994;2023-04-01T08:33:13;9.50;99.90
6164;DHT22;3114;48.362;10.994;2023-04-01T08:35:46;9.30;99.90
6164;DHT22;3114;48.362;10.994;2023-04-01T08:38:19;9.40;99.90
6164;DHT22;3114;48.362;10.994;2023-04-01T08:41:12;9.60;99.90
6164;DHT22;3114;48.362;10.994;2023-04-01T08:44:25;9.50;99.90
6164;DHT22;3114;48.362;10.994;2023-04-01T08:53:00;9.60;99.90
6164;DHT22;3114;48.362;10.994;2023-04-01T08:55:45;9.70;99.90
6164;DHT22;3114;48.362;10.994;2023-04-01T08:58:33;9.70;99.90
6164;DHT22;3114;48.362;10.994;2023-04-01T09:01:21;9.70;99.90
6164;DHT22;3114;48.362;10.994;2023-04-01T09:04:03;9.80;99.90
6164;DHT22;3114;48.362;10.994;2023-04-01T09:06:35;9.80;99.90
6164;DHT22;3114;48.362;10.994;2023-04-01T09:12:36;10.00;99.90
6164;DHT22;3114;48.362;10.994;2023-04-01T09:21:24;10.10;99.90
6164;DHT22;3114;48.362;10.994;2023-04-01T09:24:19;10.10;99.90
6164;DHT22;3114;48.362;10.994;2023-04-01T09:27:02;10.10;99.90
6164;DHT22;3114;48.362;10.994;2023-04-01T09:30:01;10.10;99.90
6164;DHT22;3114;48.362;10.994;2023-04-01T09:32:46;9.90;99.90
6164;DHT22;3114;48.362;10.994;2023-04-01T09:35:23;10.00;99.90
6164;DHT22;3114;48.362;10.994;2023-04-01T09:38:00;10.00;99.90
6164;DHT22;3114;48.362;10.994;2023-04-01T09:40:40;10.10;99.90
6164;DHT22;3114;48.362;10.994;2023-04-01T09:43:32;10.10;99.90
6164;DHT22;3114;48.362;10.994;2023-04-01T09:46:22;10.20;99.90
6164;DHT22;3114;48.362;10.994;2023-04-01T09:49:31;10.30;99.90
6164;DHT22;3114;48.362;10.994;2023-04-01T09:52:24;10.30;99.90
6164;DHT22;3114;48.362;10.994;2023-04-01T09:55:00;10.30;99.90
6164;DHT22;3114;48.362;10.994;2023-04-01T10:01:00;10.30;99.90
6164;DHT22;3114;48.362;10.994;2023-04-01T10:16:10;10.20;99.90
6164;DHT22;3114;48.362;10.994;2023-04-01T10:19:01;10.20;99.90
6164;DHT22;3114;48.362;10.994;2023-04-01T10:25:04;9.90;99.90
6164;DHT22;3114;48.362;10.994;2023-04-01T10:36:52;9.80;99.90
6164;DHT22;3114;48.362;10.994;2023-04-01T10:48:56;9.30;99.90
6164;DHT22;3114;48.362;10.994;2023-04-01T10:51:54;9.00;99.90
6164;DHT22;3114;48.362;10.994;2023-04-01T10:54:45;9.10;99.90
6164;DHT22;3114;48.362;10.994;2023-04-01T10:57:26;8.90;99.90
6164;DHT22;3114;48.362;10.994;2023-04-01T11:13:08;8.40;99.90
6164;DHT22;3114;48.362;10.994;2023-04-01T11:22:15;8.20;99.90
6164;DHT22;3114;48.362;10.994;2023-04-01T11:25:06;8.30;99.90
6164;DHT22;3114;48.362;10.994;2023-04-01T11:28:02;8.20;99.90
6164;DHT22;3114;48.362;10.994;2023-04-01T11:30:59;8.20;99.90
6164;DHT22;3114;48.362;10.994;2023-04-01T11:33:31;8.40;99.90
6164;DHT22;3114;48.362;10.994;2023-04-01T11:36:20;8.20;99.90
6164;DHT22;3114;48.362;10.994;2023-04-01T11:39:14;8.20;99.90
6164;DHT22;3114;48.362;10.994;2023-04-01T11:41:54;8.20;99.90
6164;DHT22;3114;48.362;10.994;2023-04-01T11:44:25;8.20;99.90
6164;DHT22;3114;48.362;10.994;2023-04-01T11:47:03;8.30;99.90
6164;DHT22;3114;48.362;10.994;2023-04-01T11:49:51;8.30;99.90
6164;DHT22;3114;48.362;10.994;2023-04-01T11:52:51;8.30;99.90
6164;DHT22;3114;48.362;10.994;2023-04-01T11:55:28;8.40;99.90
6164;DHT22;3114;48.362;10.994;2023-04-01T12:01:14;8.40;99.90
6164;DHT22;3114;48.362;10.994;2023-04-01T12:04:11;8.30;99.90
6164;DHT22;3114;48.362;10.994;2023-04-01T12:06:48;8.40;99.90
6164;DHT22;3114;48.362;10.994;2023-04-01T12:09:23;8.50;99.90
6164;DHT22;3114;48.362;10.994;2023-04-01T12:11:58;8.50;99.90
6164;DHT22;3114;48.362;10.994;2023-04-01T12:14:36;8.50;99.90
6164;DHT22;3114;48.362;10.994;2023-04-01T12:17:11;8.50;99.90
6164;DHT22;3114;48.362;10.994;2023-04-01T12:19:50;8.50;99.90
6164;DHT22;3114;48.362;10.994;2023-04-01T12:22:39;8.50;99.90
6164;DHT22;3114;48.362;10.994;2023-04-01T12:25:26;8.60;99.90
6164;DHT22;3114;48.362;10.994;2023-04-01T12:28:08;8.70;99.90
6164;DHT22;3114;48.362;10.994;2023-04-01T12:30:47;8.70;99.90
6164;DHT22;3114;48.362;10.994;2023-04-01T12:33:32;8.60;99.90
6164;DHT22;3114;48.362;10.994;2023-04-01T12:39:20;8.70;99.90
6164;DHT22;3114;48.362;10.994;2023-04-01T12:41:53;8.70;99.90
6164;DHT22;3114;48.362;10.994;2023-04-01T12:44:33;8.70;99.90
6164;DHT22;3114;48.362;10.994;2023-04-01T12:47:20;8.80;99.90
6164;DHT22;3114;48.362;10.994;2023-04-01T12:50:28;8.90;99.90
6164;DHT22;3114;48.362;10.994;2023-04-01T12:53:11;8.70;99.90
6164;DHT22;3114;48.362;10.994;2023-04-01T12:55:41;8.60;99.90
6164;DHT22;3114;48.362;10.994;2023-04-01T12:58:45;8.50;99.90
6164;DHT22;3114;48.362;10.994;2023-04-01T13:01:29;8.50;99.90
6164;DHT22;3114;48.362;10.994;2023-04-01T13:04:27;8.60;99.90
6164;DHT22;3114;48.362;10.994;2023-04-01T13:09:57;9.10;99.90
6164;DHT22;3114;48.362;10.994;2023-04-01T13:12:57;9.20;99.90
6164;DHT22;3114;48.362;10.994;2023-04-01T13:15:30;9.30;99.90
6164;DHT22;3114;48.362;10.994;2023-04-01T13:18:07;9.50;99.90
6164;DHT22;3114;48.362;10.994;2023-04-01T13:20:45;9.30;99.90
6164;DHT22;3114;48.362;10.994;2023-04-01T13:23:29;9.30;99.90
6164;DHT22;3114;48.362;10.994;2023-04-01T13:26:07;9.20;99.90
6164;DHT22;3114;48.362;10.994;2023-04-01T13:28:39;9.10;99.90
6164;DHT22;3114;48.362;10.994;2023-04-01T13:31:13;9.20;99.90
6164;DHT22;3114;48.362;10.994;2023-04-01T13:33:50;9.30;99.90
6164;DHT22;3114;48.362;10.994;2023-04-01T13:36:31;9.20;99.90
6164;DHT22;3114;48.362;10.994;2023-04-01T13:39:22;9.10;99.90
6164;DHT22;3114;48.362;10.994;2023-04-01T13:42:02;9.20;99.90
6164;DHT22;3114;48.362;10.994;2023-04-01T13:44:33;9.30;99.90
6164;DHT22;3114;48.362;10.994;2023-04-01T13:50:26;9.40;99.90
6164;DHT22;3114;48.362;10.994;2023-04-01T13:53:18;9.50;99.90
6164;DHT22;3114;48.362;10.994;2023-04-01T13:55:54;9.50;99.90
6164;DHT22;3114;48.362;10.994;2023-04-01T14:01:31;9.60;99.90
6164;DHT22;3114;48.362;10.994;2023-04-01T14:04:44;9.70;99.90
6164;DHT22;3114;48.362;10.994;2023-04-01T14:07:22;9.50;99.90
6164;DHT22;3114;48.362;10.994;2023-04-01T14:10:09;9.80;99.90
6164;DHT22;3114;48.362;10.994;2023-04-01T14:12:47;9.60;99.90
6164;DHT22;3114;48.362;10.994;2023-04-01T14:15:25;9.60;99.90
6164;DHT22;3114;48.362;10.994;2023-04-01T14:18:27;9.80;99.90
6164;DHT22;3114;48.362;10.994;2023-04-01T14:24:23;9.80;99.90
6164;DHT22;3114;48.362;10.994;2023-04-01T14:27:12;9.90;99.90
6164;DHT22;3114;48.362;10.994;2023-04-01T14:29:52;10.00;99.90
6164;DHT22;3114;48.362;10.994;2023-04-01T14:32:28;9.80;99.90
6164;DHT22;3114;48.362;10.994;2023-04-01T14:35:11;9.60;99.90
6164;DHT22;3114;48.362;10.994;2023-04-01T14:37:58;9.70;99.90
6164;DHT22;3114;48.362;10.994;2023-04-01T14:40:42;9.70;99.90
6164;DHT22;3114;48.362;10.994;2023-04-01T14:49:35;9.40;99.90
6164;DHT22;3114;48.362;10.994;2023-04-01T14:52:11;9.40;99.90
6164;DHT22;3114;48.362;10.994;2023-04-01T14:54:42;9.40;99.90
6164;DHT22;3114;48.362;10.994;2023-04-01T14:57:12;9.50;99.90
6164;DHT22;3114;48.362;10.994;2023-04-01T14:59:47;9.60;99.90
6164;DHT22;3114;48.362;10.994;2023-04-01T15:02:37;9.80;99.90
6164;DHT22;3114;48.362;10.994;2023-04-01T15:05:15;9.90;99.90
6164;DHT22;3114;48.362;10.994;2023-04-01T15:08:01;9.90;99.90
6164;DHT22;3114;48.362;10.994;2023-04-01T15:13:58;10.20;99.90
6164;DHT22;3114;48.362;10.994;2023-04-01T15:16:36;10.40;99.90
6164;DHT22;3114;48.362;10.994;2023-04-01T15:19:15;10.30;99.90
6164;DHT22;3114;48.362;10.994;2023-04-01T15:22:13;10.50;99.90
6164;DHT22;3114;48.362;10.994;2023-04-01T15:24:47;10.40;99.90
6164;DHT22;3114;48.362;10.994;2023-04-01T15:27:29;10.20;99.90
6164;DHT22;3114;48.362;10.994;2023-04-01T15:30:21;10.20;99.90
6164;DHT22;3114;48.362;10.994;2023-04-01T15:35:46;10.40;99.90
6164;DHT22;3114;48.362;10.994;2023-04-01T15:38:26;10.20;99.90
6164;DHT22;3114;48.362;10.994;2023-04-01T15:41:03;10.20;99.90
6164;DHT22;3114;48.362;10.994;2023-04-01T15:43:40;10.10;99.90
6164;DHT22;3114;48.362;10.994;2023-04-01T15:46:23;10.00;99.90
6164;DHT22;3114;48.362;10.994;2023-04-01T15:49:01;9.90;99.90
6164;DHT22;3114;48.362;10.994;2023-04-01T15:51:48;9.80;99.90
6164;DHT22;3114;48.362;10.994;2023-04-01T15:57:21;9.90;99.90
6164;DHT22;3114;48.362;10.994;2023-04-01T16:00:06;10.00;99.90
6164;DHT22;3114;48.362;10.994;2023-04-01T16:02:43;10.00;99.90
6164;DHT22;3114;48.362;10.994;2023-04-01T16:05:24;10.10;99.90
6164;DHT22;3114;48.362;10.994;2023-04-01T16:11:02;10.00;99.90
6164;DHT22;3114;48.362;10.994;2023-04-01T16:13:45;10.20;99.90
6164;DHT22;3114;48.362;10.994;2023-04-01T16:16:23;10.10;99.90
6164;DHT22;3114;48.362;10.994;2023-04-01T16:19:08;10.00;99.90
6164;DHT22;3114;48.362;10.994;2023-04-01T16:21:44;10.00;99.90
6164;DHT22;3114;48.362;10.994;2023-04-01T16:24:17;9.90;99.90
6164;DHT22;3114;48.362;10.994;2023-04-01T16:26:52;9.90;99.90
6164;DHT22;3114;48.362;10.994;2023-04-01T16:29:26;9.90;99.90
6164;DHT22;3114;48.362;10.994;2023-04-01T16:31:58;9.90;99.90
6164;DHT22;3114;48.362;10.994;2023-04-01T16:34:31;9.80;99.90
6164;DHT22;3114;48.362;10.994;2023-04-01T16:37:07;9.70;99.90
6164;DHT22;3114;48.362;10.994;2023-04-01T16:39:44;9.60;99.90
6164;DHT22;3114;48.362;10.994;2023-04-01T16:42:34;9.60;99.90
6164;DHT22;3114;48.362;10.994;2023-04-01T16:45:17;9.70;99.90
6164;DHT22;3114;48.362;10.994;2023-04-01T16:47:48;9.80;99.90
6164;DHT22;3114;48.362;10.994;2023-04-01T16:50:19;9.80;99.90
6164;DHT22;3114;48.362;10.994;2023-04-01T16:53:01;9.80;99.90
6164;DHT22;3114;48.362;10.994;2023-04-01T16:55:43;9.60;99.90
6164;DHT22;3114;48.362;10.994;2023-04-01T16:58:19;9.70;99.90
6164;DHT22;3114;48.362;10.994;2023-04-01T17:00:49;9.60;99.90
6164;DHT22;3114;48.362;10.994;2023-04-01T17:03:22;9.60;99.90
6164;DHT22;3114;48.362;10.994;2023-04-01T17:06:02;9.60;99.90
6164;DHT22;3114;48.362;10.994;2023-04-01T17:08:46;9.50;99.90
6164;DHT22;3114;48.362;10.994;2023-04-01T17:11:18;9.50;99.90
6164;DHT22;3114;48.362;10.994;2023-04-01T17:13:53;9.50;99.90
6164;DHT22;3114;48.362;10.994;2023-04-01T17:16:35;9.50;99.90
6164;DHT22;3114;48.362;10.994;2023-04-01T17:19:17;9.50;99.90
6164;DHT22;3114;48.362;10.994;2023-04-01T17:21:54;9.50;99.90
6164;DHT22;3114;48.362;10.994;2023-04-01T17:24:41;9.50;99.90
6164;DHT22;3114;48.362;10.994;2023-04-01T17:27:22;9.50;99.90
6164;DHT22;3114;48.362;10.994;2023-04-01T17:30:15;9.50;99.90
6164;DHT22;3114;48.362;10.994;2023-04-01T17:33:07;9.40;99.90
6164;DHT22;3114;48.362;10.994;2023-04-01T17:35:38;9.40;99.90
6164;DHT22;3114;48.362;10.994;2023-04-01T17:38:14;9.40;99.90
6164;DHT22;3114;48.362;10.994;2023-04-01T17:40:56;9.40;99.90
6164;DHT22;3114;48.362;10.994;2023-04-01T17:43:32;9.40;99.90
6164;DHT22;3114;48.362;10.994;2023-04-01T17:46:10;9.40;99.90
6164;DHT22;3114;48.362;10.994;2023-04-01T17:48:43;9.40;99.90
6164;DHT22;3114;48.362;10.994;2023-04-01T17:51:22;9.50;99.90
6164;DHT22;3114;48.362;10.994;2023-04-01T17:53:58;9.40;99.90
6164;DHT22;3114;48.362;10.994;2023-04-01T17:56:42;9.30;99.90
6164;DHT22;3114;48.362;10.994;2023-04-01T17:59:18;9.40;99.90
6164;DHT22;3114;48.362;10.994;2023-04-01T18:01:54;9.40;99.90
6164;DHT22;3114;48.362;10.994;2023-04-01T18:10:25;9.50;99.90
6164;DHT22;3114;48.362;10.994;2023-04-01T18:15:56;9.30;99.90
6164;DHT22;3114;48.362;10.994;2023-04-01T18:18:37;9.30;99.90
6164;DHT22;3114;48.362;10.994;2023-04-01T18:21:16;9.30;99.90
6164;DHT22;3114;48.362;10.994;2023-04-01T18:23:51;9.40;99.90
6164;DHT22;3114;48.362;10.994;2023-04-01T18:26:23;9.30;99.90
6164;DHT22;3114;48.362;10.994;2023-04-01T18:28:57;9.40;99.90
6164;DHT22;3114;48.362;10.994;2023-04-01T18:31:31;9.40;99.90
6164;DHT22;3114;48.362;10.994;2023-04-01T18:34:04;9.30;99.90
6164;DHT22;3114;48.362;10.994;2023-04-01T18:36:39;9.20;99.90
6164;DHT22;3114;48.362;10.994;2023-04-01T18:39:12;9.30;99.90
6164;DHT22;3114;48.362;10.994;2023-04-01T18:41:50;9.30;99.90
6164;DHT22;3114;48.362;10.994;2023-04-01T18:44:34;9.30;99.90
6164;DHT22;3114;48.362;10.994;2023-04-01T18:47:15;9.40;99.90
6164;DHT22;3114;48.362;10.994;2023-04-01T18:49:48;9.50;99.90
6164;DHT22;3114;48.362;10.994;2023-04-01T18:52:22;9.50;99.90
6164;DHT22;3114;48.362;10.994;2023-04-01T18:55:25;9.50;99.90
6164;DHT22;3114;48.362;10.994;2023-04-01T18:58:08;9.40;99.90
6164;DHT22;3114;48.362;10.994;2023-04-01T19:00:44;9.40;99.90
6164;DHT22;3114;48.362;10.994;2023-04-01T19:03:20;9.40;99.90
6164;DHT22;3114;48.362;10.994;2023-04-01T19:05:51;9.50;99.90